sensor_id;sensor_type;location;lat;lon;timestamp;P1;durP1;ratioP1;P2;durP2;ratioP2
66593;SDS011;53450;42.584;23.366;2022-07-29T00:00:28;15.77;;;9.52;;
66593;SDS011;53450;42.584;23.366;2022-07-29T00:02:54;14.07;;;10.70;;
66593;SDS011;53450;42.584;23.366;2022-07-29T00:05:19;13.75;;;11.20;;
66593;SDS011;53450;42.584;23.366;2022-07-29T00:07:45;16.67;;;10.90;;
66593;SDS011;53450;42.584;23.366;2022-07-29T00:10:11;14.15;;;10.70;;
66593;SDS011;53450;42.584;23.366;2022-07-29T00:12:37;18.63;;;11.18;;
66593;SDS011;53450;42.584;23.366;2022-07-29T00:15:03;12.25;;;10.95;;
66593;SDS011;53450;42.584;23.366;2022-07-29T00:17:29;17.17;;;11.77;;
66593;SDS011;53450;42.584;23.366;2022-07-29T00:19:55;18.00;;;11.65;;
66593;SDS011;53450;42.584;23.366;2022-07-29T00:22:21;18.10;;;11.68;;
66593;SDS011;53450;42.584;23.366;2022-07-29T00:24:47;13.48;;;10.77;;
66593;SDS011;53450;42.584;23.366;2022-07-29T00:27:13;13.00;;;10.07;;
66593;SDS011;53450;42.584;23.366;2022-07-29T00:29:39;15.20;;;11.52;;
66593;SDS011;53450;42.584;23.366;2022-07-29T00:32:05;17.80;;;11.10;;
66593;SDS011;53450;42.584;23.366;2022-07-29T00:34:31;15.90;;;10.13;;
66593;SDS011;53450;42.584;23.366;2022-07-29T00:37:15;14.57;;;9.75;;
66593;SDS011;53450;42.584;23.366;2022-07-29T00:39:41;16.67;;;11.35;;
66593;SDS011;53450;42.584;23.366;2022-07-29T00:42:06;16.75;;;10.52;;
66593;SDS011;53450;42.584;23.366;2022-07-29T00:44:36;15.75;;;10.23;;
66593;SDS011;53450;42.584;23.366;2022-07-29T00:47:03;12.90;;;10.63;;
66593;SDS011;53450;42.584;23.366;2022-07-29T00:49:28;19.85;;;11.15;;
66593;SDS011;53450;42.584;23.366;2022-07-29T00:51:54;16.52;;;11.77;;
66593;SDS011;53450;42.584;23.366;2022-07-29T00:54:19;13.27;;;10.32;;
66593;SDS011;53450;42.584;23.366;2022-07-29T00:56:45;18.27;;;11.07;;
66593;SDS011;53450;42.584;23.366;2022-07-29T00:59:11;16.00;;;11.57;;
66593;SDS011;53450;42.584;23.366;2022-07-29T01:01:37;23.35;;;12.15;;
66593;SDS011;53450;42.584;23.366;2022-07-29T01:04:02;18.27;;;11.55;;
66593;SDS011;53450;42.584;23.366;2022-07-29T01:06:28;16.05;;;11.38;;
66593;SDS011;53450;42.584;23.366;2022-07-29T01:08:53;24.23;;;11.43;;
66593;SDS011;53450;42.584;23.366;2022-07-29T01:11:22;15.63;;;10.93;;
66593;SDS011;53450;42.584;23.366;2022-07-29T01:13:48;13.55;;;11.93;;
66593;SDS011;53450;42.584;23.366;2022-07-29T01:16:51;19.75;;;11.55;;
66593;SDS011;53450;42.584;23.366;2022-07-29T01:19:56;18.63;;;11.75;;
66593;SDS011;53450;42.584;23.366;2022-07-29T01:31:08;14.80;;;10.95;;
66593;SDS011;53450;42.584;23.366;2022-07-29T01:33:37;19.98;;;12.05;;
66593;SDS011;53450;42.584;23.366;2022-07-29T01:36:19;19.58;;;11.57;;
66593;SDS011;53450;42.584;23.366;2022-07-29T01:41:48;22.35;;;12.38;;
66593;SDS011;53450;42.584;23.366;2022-07-29T01:45:02;31.27;;;12.80;;
66593;SDS011;53450;42.584;23.366;2022-07-29T01:47:19;21.38;;;12.63;;
66593;SDS011;53450;42.584;23.366;2022-07-29T01:49:49;18.05;;;12.25;;
66593;SDS011;53450;42.584;23.366;2022-07-29T01:52:20;18.00;;;12.90;;
66593;SDS011;53450;42.584;23.366;2022-07-29T01:54:57;15.10;;;12.15;;
66593;SDS011;53450;42.584;23.366;2022-07-29T01:57:28;20.13;;;12.52;;
66593;SDS011;53450;42.584;23.366;2022-07-29T01:59:56;20.85;;;12.82;;
66593;SDS011;53450;42.584;23.366;2022-07-29T02:02:23;31.70;;;13.55;;
66593;SDS011;53450;42.584;23.366;2022-07-29T02:04:51;19.85;;;12.52;;
66593;SDS011;53450;42.584;23.366;2022-07-29T02:07:20;15.93;;;12.68;;
66593;SDS011;53450;42.584;23.366;2022-07-29T02:09:47;27.52;;;13.25;;
66593;SDS011;53450;42.584;23.366;2022-07-29T02:12:16;17.98;;;12.90;;
66593;SDS011;53450;42.584;23.366;2022-07-29T02:15:08;17.52;;;12.60;;
66593;SDS011;53450;42.584;23.366;2022-07-29T02:17:45;15.77;;;13.02;;
66593;SDS011;53450;42.584;23.366;2022-07-29T02:20:19;17.92;;;12.48;;
66593;SDS011;53450;42.584;23.366;2022-07-29T02:22:45;16.52;;;12.32;;
66593;SDS011;53450;42.584;23.366;2022-07-29T02:25:36;20.88;;;12.88;;
66593;SDS011;53450;42.584;23.366;2022-07-29T02:28:28;23.75;;;12.60;;
66593;SDS011;53450;42.584;23.366;2022-07-29T02:30:56;20.90;;;12.63;;
66593;SDS011;53450;42.584;23.366;2022-07-29T02:33:24;14.45;;;11.20;;
66593;SDS011;53450;42.584;23.366;2022-07-29T02:35:51;16.67;;;11.63;;
66593;SDS011;53450;42.584;23.366;2022-07-29T02:38:17;16.33;;;11.52;;
66593;SDS011;53450;42.584;23.366;2022-07-29T02:41:13;23.15;;;12.68;;
66593;SDS011;53450;42.584;23.366;2022-07-29T02:43:43;15.23;;;11.32;;
66593;SDS011;53450;42.584;23.366;2022-07-29T02:46:13;14.55;;;10.45;;
66593;SDS011;53450;42.584;23.366;2022-07-29T02:48:43;16.95;;;11.77;;
66593;SDS011;53450;42.584;23.366;2022-07-29T02:51:23;18.92;;;12.52;;
66593;SDS011;53450;42.584;23.366;2022-07-29T02:53:53;20.70;;;11.68;;
66593;SDS011;53450;42.584;23.366;2022-07-29T02:56:23;14.15;;;11.45;;
66593;SDS011;53450;42.584;23.366;2022-07-29T02:58:59;19.70;;;10.50;;
66593;SDS011;53450;42.584;23.366;2022-07-29T03:01:30;19.45;;;10.55;;
66593;SDS011;53450;42.584;23.366;2022-07-29T03:03:57;15.77;;;11.65;;
66593;SDS011;53450;42.584;23.366;2022-07-29T03:06:27;15.98;;;10.65;;
66593;SDS011;53450;42.584;23.366;2022-07-29T03:08:54;15.60;;;11.23;;
66593;SDS011;53450;42.584;23.366;2022-07-29T03:11:20;15.30;;;10.60;;
66593;SDS011;53450;42.584;23.366;2022-07-29T03:13:46;24.45;;;9.60;;
66593;SDS011;53450;42.584;23.366;2022-07-29T03:16:12;11.05;;;9.45;;
66593;SDS011;53450;42.584;23.366;2022-07-29T03:18:38;14.02;;;9.85;;
66593;SDS011;53450;42.584;23.366;2022-07-29T03:21:04;15.75;;;8.35;;
66593;SDS011;53450;42.584;23.366;2022-07-29T03:23:30;12.27;;;8.98;;
66593;SDS011;53450;42.584;23.366;2022-07-29T03:25:55;10.63;;;8.23;;
66593;SDS011;53450;42.584;23.366;2022-07-29T03:28:21;18.42;;;8.68;;
66593;SDS011;53450;42.584;23.366;2022-07-29T03:30:48;12.07;;;8.68;;
66593;SDS011;53450;42.584;23.366;2022-07-29T03:33:14;14.02;;;9.52;;
66593;SDS011;53450;42.584;23.366;2022-07-29T03:35:40;16.45;;;9.40;;
66593;SDS011;53450;42.584;23.366;2022-07-29T03:38:05;12.45;;;9.20;;
66593;SDS011;53450;42.584;23.366;2022-07-29T03:40:33;12.98;;;8.80;;
66593;SDS011;53450;42.584;23.366;2022-07-29T03:43:07;13.70;;;8.90;;
66593;SDS011;53450;42.584;23.366;2022-07-29T03:45:35;18.70;;;9.23;;
66593;SDS011;53450;42.584;23.366;2022-07-29T03:48:02;11.25;;;8.55;;
66593;SDS011;53450;42.584;23.366;2022-07-29T03:50:32;19.40;;;9.13;;
66593;SDS011;53450;42.584;23.366;2022-07-29T03:53:00;26.48;;;8.48;;
66593;SDS011;53450;42.584;23.366;2022-07-29T03:55:26;16.40;;;8.50;;
66593;SDS011;53450;42.584;23.366;2022-07-29T03:57:54;13.57;;;7.90;;
66593;SDS011;53450;42.584;23.366;2022-07-29T04:00:23;13.45;;;8.90;;
66593;SDS011;53450;42.584;23.366;2022-07-29T04:02:50;12.00;;;6.88;;
66593;SDS011;53450;42.584;23.366;2022-07-29T04:05:18;17.63;;;8.32;;
66593;SDS011;53450;42.584;23.366;2022-07-29T04:07:47;10.52;;;6.78;;
66593;SDS011;53450;42.584;23.366;2022-07-29T04:10:13;16.92;;;6.80;;
66593;SDS011;53450;42.584;23.366;2022-07-29T04:12:40;8.75;;;6.97;;
66593;SDS011;53450;42.584;23.366;2022-07-29T04:15:06;17.63;;;9.35;;
66593;SDS011;53450;42.584;23.366;2022-07-29T04:17:32;10.25;;;6.70;;
66593;SDS011;53450;42.584;23.366;2022-07-29T04:19:58;22.98;;;10.43;;
66593;SDS011;53450;42.584;23.366;2022-07-29T04:22:24;8.20;;;6.50;;
66593;SDS011;53450;42.584;23.366;2022-07-29T04:25:15;18.25;;;10.10;;
66593;SDS011;53450;42.584;23.366;2022-07-29T04:27:41;12.35;;;6.85;;
66593;SDS011;53450;42.584;23.366;2022-07-29T04:30:25;7.80;;;5.60;;
66593;SDS011;53450;42.584;23.366;2022-07-29T04:32:50;10.80;;;6.93;;
66593;SDS011;53450;42.584;23.366;2022-07-29T04:35:17;13.75;;;7.60;;
66593;SDS011;53450;42.584;23.366;2022-07-29T04:37:43;18.23;;;14.35;;
66593;SDS011;53450;42.584;23.366;2022-07-29T04:40:08;24.08;;;15.13;;
66593;SDS011;53450;42.584;23.366;2022-07-29T04:42:34;19.58;;;7.70;;
66593;SDS011;53450;42.584;23.366;2022-07-29T04:45:00;17.10;;;11.35;;
66593;SDS011;53450;42.584;23.366;2022-07-29T04:47:25;19.45;;;12.35;;
66593;SDS011;53450;42.584;23.366;2022-07-29T04:49:51;21.95;;;8.82;;
66593;SDS011;53450;42.584;23.366;2022-07-29T04:52:16;11.65;;;5.45;;
66593;SDS011;53450;42.584;23.366;2022-07-29T04:54:42;7.75;;;5.95;;
66593;SDS011;53450;42.584;23.366;2022-07-29T04:57:07;10.98;;;6.53;;
66593;SDS011;53450;42.584;23.366;2022-07-29T04:59:33;9.40;;;5.35;;
66593;SDS011;53450;42.584;23.366;2022-07-29T05:01:59;10.55;;;5.72;;
66593;SDS011;53450;42.584;23.366;2022-07-29T05:04:25;8.10;;;6.15;;
66593;SDS011;53450;42.584;23.366;2022-07-29T05:06:51;12.70;;;6.07;;
66593;SDS011;53450;42.584;23.366;2022-07-29T05:09:16;7.28;;;6.03;;
66593;SDS011;53450;42.584;23.366;2022-07-29T05:11:42;8.98;;;5.93;;
66593;SDS011;53450;42.584;23.366;2022-07-29T05:14:08;10.70;;;5.28;;
66593;SDS011;53450;42.584;23.366;2022-07-29T05:16:33;10.80;;;5.95;;
66593;SDS011;53450;42.584;23.366;2022-07-29T05:18:59;9.40;;;5.70;;
66593;SDS011;53450;42.584;23.366;2022-07-29T05:21:24;13.05;;;5.97;;
66593;SDS011;53450;42.584;23.366;2022-07-29T05:23:50;7.88;;;5.90;;
66593;SDS011;53450;42.584;23.366;2022-07-29T05:26:15;10.35;;;6.00;;
66593;SDS011;53450;42.584;23.366;2022-07-29T05:29:46;17.63;;;7.10;;
66593;SDS011;53450;42.584;23.366;2022-07-29T05:32:12;10.73;;;6.40;;
66593;SDS011;53450;42.584;23.366;2022-07-29T05:34:38;19.40;;;6.05;;
66593;SDS011;53450;42.584;23.366;2022-07-29T05:37:03;17.85;;;6.38;;
66593;SDS011;53450;42.584;23.366;2022-07-29T05:39:29;12.75;;;6.43;;
66593;SDS011;53450;42.584;23.366;2022-07-29T05:41:55;7.47;;;6.78;;
66593;SDS011;53450;42.584;23.366;2022-07-29T05:44:20;13.90;;;6.65;;
66593;SDS011;53450;42.584;23.366;2022-07-29T05:46:46;8.45;;;6.50;;
66593;SDS011;53450;42.584;23.366;2022-07-29T05:49:11;16.15;;;7.07;;
66593;SDS011;53450;42.584;23.366;2022-07-29T05:51:37;16.65;;;6.50;;
66593;SDS011;53450;42.584;23.366;2022-07-29T05:54:02;17.80;;;7.18;;
66593;SDS011;53450;42.584;23.366;2022-07-29T05:56:28;14.80;;;6.50;;
66593;SDS011;53450;42.584;23.366;2022-07-29T05:58:54;9.30;;;5.90;;
66593;SDS011;53450;42.584;23.366;2022-07-29T06:01:20;10.70;;;6.80;;
66593;SDS011;53450;42.584;23.366;2022-07-29T06:03:45;7.18;;;5.68;;
66593;SDS011;53450;42.584;23.366;2022-07-29T06:06:11;9.27;;;6.53;;
66593;SDS011;53450;42.584;23.366;2022-07-29T06:08:36;8.32;;;6.47;;
66593;SDS011;53450;42.584;23.366;2022-07-29T06:11:03;12.60;;;6.35;;
66593;SDS011;53450;42.584;23.366;2022-07-29T06:13:30;13.25;;;6.15;;
66593;SDS011;53450;42.584;23.366;2022-07-29T06:15:56;9.68;;;7.30;;
66593;SDS011;53450;42.584;23.366;2022-07-29T06:18:21;11.38;;;5.70;;
66593;SDS011;53450;42.584;23.366;2022-07-29T06:20:52;11.52;;;6.28;;
66593;SDS011;53450;42.584;23.366;2022-07-29T06:23:19;9.93;;;6.55;;
66593;SDS011;53450;42.584;23.366;2022-07-29T06:25:45;11.70;;;6.25;;
66593;SDS011;53450;42.584;23.366;2022-07-29T06:28:11;12.20;;;6.47;;
66593;SDS011;53450;42.584;23.366;2022-07-29T06:31:02;16.55;;;7.35;;
66593;SDS011;53450;42.584;23.366;2022-07-29T06:33:53;8.45;;;6.32;;
66593;SDS011;53450;42.584;23.366;2022-07-29T06:36:19;9.13;;;6.10;;
66593;SDS011;53450;42.584;23.366;2022-07-29T06:38:44;10.45;;;6.28;;
66593;SDS011;53450;42.584;23.366;2022-07-29T06:41:10;12.48;;;6.38;;
66593;SDS011;53450;42.584;23.366;2022-07-29T06:43:40;8.25;;;6.38;;
66593;SDS011;53450;42.584;23.366;2022-07-29T06:46:10;9.45;;;6.60;;
66593;SDS011;53450;42.584;23.366;2022-07-29T06:48:37;8.70;;;6.43;;
66593;SDS011;53450;42.584;23.366;2022-07-29T06:51:04;6.53;;;5.85;;
66593;SDS011;53450;42.584;23.366;2022-07-29T06:53:31;7.07;;;6.38;;
66593;SDS011;53450;42.584;23.366;2022-07-29T06:55:58;15.35;;;5.93;;
66593;SDS011;53450;42.584;23.366;2022-07-29T06:58:25;10.13;;;6.82;;
66593;SDS011;53450;42.584;23.366;2022-07-29T07:00:55;8.23;;;7.10;;
66593;SDS011;53450;42.584;23.366;2022-07-29T07:04:44;9.27;;;6.78;;
66593;SDS011;53450;42.584;23.366;2022-07-29T07:07:09;12.95;;;7.00;;
66593;SDS011;53450;42.584;23.366;2022-07-29T07:09:35;10.98;;;5.85;;
66593;SDS011;53450;42.584;23.366;2022-07-29T07:12:01;8.98;;;6.65;;
66593;SDS011;53450;42.584;23.366;2022-07-29T07:14:26;12.63;;;6.13;;
66593;SDS011;53450;42.584;23.366;2022-07-29T07:16:53;7.43;;;6.10;;
66593;SDS011;53450;42.584;23.366;2022-07-29T07:19:18;7.18;;;6.40;;
66593;SDS011;53450;42.584;23.366;2022-07-29T07:21:44;11.00;;;6.40;;
66593;SDS011;53450;42.584;23.366;2022-07-29T07:24:10;8.48;;;6.07;;
66593;SDS011;53450;42.584;23.366;2022-07-29T07:27:01;10.63;;;6.45;;
66593;SDS011;53450;42.584;23.366;2022-07-29T07:31:10;8.10;;;6.10;;
66593;SDS011;53450;42.584;23.366;2022-07-29T07:33:37;9.63;;;6.05;;
66593;SDS011;53450;42.584;23.366;2022-07-29T07:36:02;8.95;;;5.70;;
66593;SDS011;53450;42.584;23.366;2022-07-29T07:38:28;9.35;;;6.20;;
66593;SDS011;53450;42.584;23.366;2022-07-29T07:40:54;10.60;;;6.75;;
66593;SDS011;53450;42.584;23.366;2022-07-29T07:43:19;11.75;;;5.50;;
66593;SDS011;53450;42.584;23.366;2022-07-29T07:45:45;5.90;;;5.30;;
66593;SDS011;53450;42.584;23.366;2022-07-29T07:48:11;6.70;;;5.28;;
66593;SDS011;53450;42.584;23.366;2022-07-29T07:50:36;9.68;;;5.18;;
66593;SDS011;53450;42.584;23.366;2022-07-29T07:53:03;6.63;;;5.07;;
66593;SDS011;53450;42.584;23.366;2022-07-29T07:55:29;10.35;;;5.40;;
66593;SDS011;53450;42.584;23.366;2022-07-29T07:57:54;13.25;;;6.38;;
66593;SDS011;53450;42.584;23.366;2022-07-29T08:00:20;5.18;;;4.50;;
66593;SDS011;53450;42.584;23.366;2022-07-29T08:02:47;5.88;;;4.80;;
66593;SDS011;53450;42.584;23.366;2022-07-29T08:05:13;7.35;;;4.53;;
66593;SDS011;53450;42.584;23.366;2022-07-29T08:07:42;8.07;;;5.20;;
66593;SDS011;53450;42.584;23.366;2022-07-29T08:10:10;9.85;;;4.65;;
66593;SDS011;53450;42.584;23.366;2022-07-29T08:12:35;7.05;;;4.70;;
66593;SDS011;53450;42.584;23.366;2022-07-29T08:15:01;6.38;;;4.53;;
66593;SDS011;53450;42.584;23.366;2022-07-29T08:17:52;6.25;;;4.88;;
66593;SDS011;53450;42.584;23.366;2022-07-29T08:20:18;6.32;;;4.70;;
66593;SDS011;53450;42.584;23.366;2022-07-29T08:22:43;8.20;;;4.68;;
66593;SDS011;53450;42.584;23.366;2022-07-29T08:25:12;5.63;;;4.72;;
66593;SDS011;53450;42.584;23.366;2022-07-29T08:27:37;7.88;;;5.20;;
66593;SDS011;53450;42.584;23.366;2022-07-29T08:30:03;6.70;;;4.50;;
66593;SDS011;53450;42.584;23.366;2022-07-29T08:32:29;6.28;;;5.20;;
66593;SDS011;53450;42.584;23.366;2022-07-29T08:34:56;6.40;;;4.90;;
66593;SDS011;53450;42.584;23.366;2022-07-29T08:37:22;5.18;;;4.68;;
66593;SDS011;53450;42.584;23.366;2022-07-29T08:39:47;8.75;;;4.65;;
66593;SDS011;53450;42.584;23.366;2022-07-29T08:42:13;6.97;;;5.07;;
66593;SDS011;53450;42.584;23.366;2022-07-29T08:44:39;5.55;;;4.28;;
66593;SDS011;53450;42.584;23.366;2022-07-29T08:47:04;6.85;;;4.53;;
66593;SDS011;53450;42.584;23.366;2022-07-29T08:49:33;8.90;;;4.53;;
66593;SDS011;53450;42.584;23.366;2022-07-29T08:51:59;7.97;;;5.90;;
66593;SDS011;53450;42.584;23.366;2022-07-29T08:54:50;11.43;;;5.10;;
66593;SDS011;53450;42.584;23.366;2022-07-29T08:57:42;5.85;;;5.10;;
66593;SDS011;53450;42.584;23.366;2022-07-29T09:00:33;11.32;;;5.00;;
66593;SDS011;53450;42.584;23.366;2022-07-29T09:03:02;5.63;;;4.82;;
66593;SDS011;53450;42.584;23.366;2022-07-29T09:05:30;5.88;;;5.10;;
66593;SDS011;53450;42.584;23.366;2022-07-29T09:07:57;10.98;;;5.00;;
66593;SDS011;53450;42.584;23.366;2022-07-29T09:10:24;5.82;;;5.22;;
66593;SDS011;53450;42.584;23.366;2022-07-29T09:12:49;9.90;;;4.60;;
66593;SDS011;53450;42.584;23.366;2022-07-29T09:15:15;19.40;;;4.88;;
66593;SDS011;53450;42.584;23.366;2022-07-29T09:20:10;8.55;;;5.25;;
66593;SDS011;53450;42.584;23.366;2022-07-29T09:22:37;7.68;;;5.50;;
66593;SDS011;53450;42.584;23.366;2022-07-29T09:25:03;13.70;;;5.20;;
66593;SDS011;53450;42.584;23.366;2022-07-29T09:27:29;16.50;;;9.63;;
66593;SDS011;53450;42.584;23.366;2022-07-29T09:29:57;6.57;;;4.90;;
66593;SDS011;53450;42.584;23.366;2022-07-29T09:33:00;6.65;;;5.20;;
66593;SDS011;53450;42.584;23.366;2022-07-29T09:36:04;10.68;;;6.57;;
66593;SDS011;53450;42.584;23.366;2022-07-29T09:38:31;12.05;;;6.25;;
66593;SDS011;53450;42.584;23.366;2022-07-29T09:40:59;8.20;;;5.60;;
66593;SDS011;53450;42.584;23.366;2022-07-29T09:43:25;14.40;;;6.55;;
66593;SDS011;53450;42.584;23.366;2022-07-29T09:45:51;10.27;;;5.82;;
66593;SDS011;53450;42.584;23.366;2022-07-29T09:48:18;10.75;;;5.65;;
66593;SDS011;53450;42.584;23.366;2022-07-29T09:50:47;8.45;;;5.72;;
66593;SDS011;53450;42.584;23.366;2022-07-29T09:53:32;8.05;;;5.70;;
66593;SDS011;53450;42.584;23.366;2022-07-29T09:55:59;8.60;;;5.30;;
66593;SDS011;53450;42.584;23.366;2022-07-29T09:58:25;7.93;;;6.13;;
66593;SDS011;53450;42.584;23.366;2022-07-29T10:00:51;9.35;;;5.18;;
66593;SDS011;53450;42.584;23.366;2022-07-29T10:03:18;6.90;;;5.35;;
66593;SDS011;53450;42.584;23.366;2022-07-29T10:05:44;14.40;;;5.80;;
66593;SDS011;53450;42.584;23.366;2022-07-29T10:08:11;8.40;;;5.30;;
66593;SDS011;53450;42.584;23.366;2022-07-29T10:10:39;8.75;;;5.53;;
66593;SDS011;53450;42.584;23.366;2022-07-29T10:13:08;8.02;;;5.05;;
66593;SDS011;53450;42.584;23.366;2022-07-29T10:15:37;7.78;;;5.35;;
66593;SDS011;53450;42.584;23.366;2022-07-29T10:18:06;10.90;;;4.78;;
66593;SDS011;53450;42.584;23.366;2022-07-29T10:20:32;5.85;;;5.20;;
66593;SDS011;53450;42.584;23.366;2022-07-29T10:22:59;7.15;;;5.38;;
66593;SDS011;53450;42.584;23.366;2022-07-29T10:25:24;8.35;;;4.70;;
66593;SDS011;53450;42.584;23.366;2022-07-29T10:27:50;9.88;;;4.63;;
66593;SDS011;53450;42.584;23.366;2022-07-29T10:30:17;6.97;;;5.20;;
66593;SDS011;53450;42.584;23.366;2022-07-29T10:33:05;9.93;;;4.45;;
66593;SDS011;53450;42.584;23.366;2022-07-29T10:38:51;4.70;;;4.30;;
66593;SDS011;53450;42.584;23.366;2022-07-29T10:44:24;9.23;;;4.47;;
66593;SDS011;53450;42.584;23.366;2022-07-29T10:46:52;8.30;;;5.18;;
66593;SDS011;53450;42.584;23.366;2022-07-29T10:49:19;13.20;;;4.72;;
66593;SDS011;53450;42.584;23.366;2022-07-29T10:54:18;6.60;;;4.60;;
66593;SDS011;53450;42.584;23.366;2022-07-29T11:07:23;10.18;;;4.85;;
66593;SDS011;53450;42.584;23.366;2022-07-29T11:15:12;10.15;;;4.72;;
66593;SDS011;53450;42.584;23.366;2022-07-29T11:22:55;7.00;;;4.50;;
66593;SDS011;53450;42.584;23.366;2022-07-29T11:25:21;6.07;;;4.85;;
66593;SDS011;53450;42.584;23.366;2022-07-29T11:27:46;7.30;;;4.15;;
66593;SDS011;53450;42.584;23.366;2022-07-29T11:30:12;7.22;;;4.53;;
66593;SDS011;53450;42.584;23.366;2022-07-29T11:32:42;5.03;;;4.30;;
66593;SDS011;53450;42.584;23.366;2022-07-29T11:37:47;12.23;;;5.00;;
66593;SDS011;53450;42.584;23.366;2022-07-29T11:46:18;5.32;;;4.82;;
66593;SDS011;53450;42.584;23.366;2022-07-29T11:49:07;8.63;;;4.85;;
66593;SDS011;53450;42.584;23.366;2022-07-29T11:51:37;7.43;;;5.20;;
66593;SDS011;53450;42.584;23.366;2022-07-29T11:54:04;9.82;;;5.40;;
66593;SDS011;53450;42.584;23.366;2022-07-29T11:56:30;6.15;;;4.90;;
66593;SDS011;53450;42.584;23.366;2022-07-29T11:59:03;6.32;;;4.95;;
66593;SDS011;53450;42.584;23.366;2022-07-29T12:01:30;7.95;;;4.57;;
66593;SDS011;53450;42.584;23.366;2022-07-29T12:04:05;10.38;;;5.13;;
66593;SDS011;53450;42.584;23.366;2022-07-29T12:06:32;12.55;;;5.32;;
66593;SDS011;53450;42.584;23.366;2022-07-29T12:09:06;7.93;;;5.35;;
66593;SDS011;53450;42.584;23.366;2022-07-29T12:11:33;5.43;;;4.78;;
66593;SDS011;53450;42.584;23.366;2022-07-29T12:13:58;7.57;;;5.15;;
66593;SDS011;53450;42.584;23.366;2022-07-29T12:16:33;7.00;;;4.95;;
66593;SDS011;53450;42.584;23.366;2022-07-29T12:19:03;9.18;;;4.70;;
66593;SDS011;53450;42.584;23.366;2022-07-29T12:21:52;9.48;;;5.10;;
66593;SDS011;53450;42.584;23.366;2022-07-29T12:24:16;6.75;;;5.65;;
66593;SDS011;53450;42.584;23.366;2022-07-29T12:26:52;8.25;;;5.00;;
66593;SDS011;53450;42.584;23.366;2022-07-29T12:29:19;6.18;;;5.50;;
66593;SDS011;53450;42.584;23.366;2022-07-29T12:31:45;5.43;;;4.93;;
66593;SDS011;53450;42.584;23.366;2022-07-29T12:34:12;5.80;;;5.20;;
66593;SDS011;53450;42.584;23.366;2022-07-29T12:36:39;8.95;;;5.32;;
66593;SDS011;53450;42.584;23.366;2022-07-29T12:39:32;11.95;;;5.70;;
66593;SDS011;53450;42.584;23.366;2022-07-29T12:41:57;6.57;;;5.65;;
66593;SDS011;53450;42.584;23.366;2022-07-29T12:44:23;5.78;;;5.20;;
66593;SDS011;53450;42.584;23.366;2022-07-29T12:47:02;10.20;;;5.63;;
66593;SDS011;53450;42.584;23.366;2022-07-29T12:49:28;7.20;;;5.35;;
66593;SDS011;53450;42.584;23.366;2022-07-29T12:51:54;9.80;;;5.15;;
66593;SDS011;53450;42.584;23.366;2022-07-29T12:54:20;7.43;;;5.55;;
66593;SDS011;53450;42.584;23.366;2022-07-29T12:56:45;8.57;;;5.30;;
66593;SDS011;53450;42.584;23.366;2022-07-29T13:02:20;16.08;;;5.03;;
66593;SDS011;53450;42.584;23.366;2022-07-29T13:05:14;9.73;;;5.80;;
66593;SDS011;53450;42.584;23.366;2022-07-29T13:09:41;8.90;;;5.43;;
66593;SDS011;53450;42.584;23.366;2022-07-29T13:12:09;5.78;;;5.30;;
66593;SDS011;53450;42.584;23.366;2022-07-29T13:14:43;12.57;;;8.35;;
66593;SDS011;53450;42.584;23.366;2022-07-29T13:17:11;6.30;;;4.97;;
66593;SDS011;53450;42.584;23.366;2022-07-29T13:22:14;11.18;;;5.05;;
66593;SDS011;53450;42.584;23.366;2022-07-29T13:24:48;7.80;;;5.18;;
66593;SDS011;53450;42.584;23.366;2022-07-29T13:27:19;6.45;;;5.38;;
66593;SDS011;53450;42.584;23.366;2022-07-29T13:29:46;7.80;;;5.20;;
66593;SDS011;53450;42.584;23.366;2022-07-29T13:32:12;11.10;;;5.57;;
66593;SDS011;53450;42.584;23.366;2022-07-29T13:34:38;8.27;;;5.22;;
66593;SDS011;53450;42.584;23.366;2022-07-29T13:37:04;5.22;;;4.72;;
66593;SDS011;53450;42.584;23.366;2022-07-29T13:39:30;9.88;;;5.13;;
66593;SDS011;53450;42.584;23.366;2022-07-29T13:41:55;9.27;;;5.45;;
66593;SDS011;53450;42.584;23.366;2022-07-29T13:44:21;5.90;;;5.10;;
66593;SDS011;53450;42.584;23.366;2022-07-29T13:46:47;5.57;;;5.00;;
66593;SDS011;53450;42.584;23.366;2022-07-29T13:49:12;9.00;;;5.07;;
66593;SDS011;53450;42.584;23.366;2022-07-29T13:51:38;5.40;;;4.90;;
66593;SDS011;53450;42.584;23.366;2022-07-29T13:54:04;6.07;;;5.05;;
66593;SDS011;53450;42.584;23.366;2022-07-29T13:56:29;8.05;;;5.05;;
66593;SDS011;53450;42.584;23.366;2022-07-29T13:58:55;6.13;;;5.53;;
66593;SDS011;53450;42.584;23.366;2022-07-29T14:01:22;6.63;;;5.93;;
66593;SDS011;53450;42.584;23.366;2022-07-29T14:03:48;10.60;;;6.00;;
66593;SDS011;53450;42.584;23.366;2022-07-29T14:06:14;8.80;;;5.47;;
66593;SDS011;53450;42.584;23.366;2022-07-29T14:08:40;9.27;;;6.22;;
66593;SDS011;53450;42.584;23.366;2022-07-29T14:11:30;14.07;;;6.10;;
66593;SDS011;53450;42.584;23.366;2022-07-29T14:13:58;40.22;;;7.10;;
66593;SDS011;53450;42.584;23.366;2022-07-29T14:16:24;10.85;;;6.10;;
66593;SDS011;53450;42.584;23.366;2022-07-29T14:18:49;7.90;;;5.97;;
66593;SDS011;53450;42.584;23.366;2022-07-29T14:21:15;9.90;;;6.20;;
66593;SDS011;53450;42.584;23.366;2022-07-29T14:23:40;12.15;;;6.28;;
66593;SDS011;53450;42.584;23.366;2022-07-29T14:26:06;13.90;;;5.80;;
66593;SDS011;53450;42.584;23.366;2022-07-29T14:28:32;8.60;;;5.47;;
66593;SDS011;53450;42.584;23.366;2022-07-29T14:30:57;6.55;;;5.90;;
66593;SDS011;53450;42.584;23.366;2022-07-29T14:33:23;11.13;;;5.97;;
66593;SDS011;53450;42.584;23.366;2022-07-29T14:35:48;6.22;;;5.63;;
66593;SDS011;53450;42.584;23.366;2022-07-29T14:38:14;8.32;;;5.78;;
66593;SDS011;53450;42.584;23.366;2022-07-29T14:40:40;6.72;;;5.20;;
66593;SDS011;53450;42.584;23.366;2022-07-29T14:43:30;9.52;;;5.82;;
66593;SDS011;53450;42.584;23.366;2022-07-29T14:46:22;6.40;;;5.80;;
66593;SDS011;53450;42.584;23.366;2022-07-29T14:48:48;7.25;;;5.80;;
66593;SDS011;53450;42.584;23.366;2022-07-29T14:51:13;6.82;;;5.80;;
66593;SDS011;53450;42.584;23.366;2022-07-29T14:53:39;9.82;;;6.18;;
66593;SDS011;53450;42.584;23.366;2022-07-29T14:56:04;7.03;;;5.93;;
66593;SDS011;53450;42.584;23.366;2022-07-29T14:58:30;10.32;;;6.63;;
66593;SDS011;53450;42.584;23.366;2022-07-29T15:00:56;12.57;;;6.97;;
66593;SDS011;53450;42.584;23.366;2022-07-29T15:03:21;8.95;;;6.40;;
66593;SDS011;53450;42.584;23.366;2022-07-29T15:05:47;8.20;;;5.40;;
66593;SDS011;53450;42.584;23.366;2022-07-29T15:08:12;8.70;;;6.43;;
66593;SDS011;53450;42.584;23.366;2022-07-29T15:10:38;9.27;;;6.13;;
66593;SDS011;53450;42.584;23.366;2022-07-29T15:13:03;12.95;;;6.53;;
66593;SDS011;53450;42.584;23.366;2022-07-29T15:15:29;8.35;;;5.85;;
66593;SDS011;53450;42.584;23.366;2022-07-29T15:17:55;14.68;;;5.82;;
66593;SDS011;53450;42.584;23.366;2022-07-29T15:20:20;9.18;;;6.88;;
66593;SDS011;53450;42.584;23.366;2022-07-29T15:22:46;13.38;;;6.65;;
66593;SDS011;53450;42.584;23.366;2022-07-29T15:25:12;18.45;;;6.70;;
66593;SDS011;53450;42.584;23.366;2022-07-29T15:27:37;14.38;;;8.02;;
66593;SDS011;53450;42.584;23.366;2022-07-29T15:30:03;9.35;;;7.05;;
66593;SDS011;53450;42.584;23.366;2022-07-29T15:32:29;11.93;;;9.52;;
66593;SDS011;53450;42.584;23.366;2022-07-29T15:34:54;14.43;;;10.55;;
66593;SDS011;53450;42.584;23.366;2022-07-29T15:37:20;18.58;;;11.23;;